Latest Weather Observations for Fowlers Gap

IDN60801

Issued at 7:05 am EDT Thursday 27 November 2014 (issued every 30 minutes, with the page automatically refreshed every 10 minutes)

About weather observations | Map of weather stations | Latest weather observations for NSW | Other Formats
Station Details ID: 046128 Name: FOWLERS GAP AWS Lat: -31.09 Lon: 141.70 Height: 181.0 m
Data from the previous 72 hours. | See also: Recent months at Fowlers Gap
Date/Time
EDT
Temp
°C
App
Temp
°C
Dew
Point
Rel
Hum
%
Delta-T
°C
Wind Press
QNH
hPa
Press
MSL
hPa
Rain
since 9 am
mm
Dir
 
Spd
km/h
Gust
km/h
Spd
kts
Gust
kts
27/07:00am 18.4 13.9 2.3 34 7.4 SSE 15 19 8 10 1019.3 1018.5 0.0
27/06:30am 17.6 13.5 2.4 36 7.0 SSE 13 19 7 10 1019.2 1018.4 0.0
27/06:00am 17.9 13.8 2.2 35 7.2 SSE 13 17 7 9 1019.1 1018.3 0.0
27/05:30am 17.9 13.3 1.8 34 7.3 SSE 15 19 8 10 1018.8 1018.0 0.0
27/05:00am 18.4 13.9 1.9 33 7.5 SSE 15 20 8 11 1018.7 1017.9 0.0
27/04:30am 18.9 14.4 2.3 33 7.7 SSE 15 20 8 11 1018.6 1017.8 0.0
27/04:00am 19.0 14.1 2.0 32 7.8 SSE 17 20 9 11 1018.5 1017.7 0.0
27/03:30am 19.4 14.5 2.3 32 7.9 SSE 17 22 9 12 1018.5 1017.7 0.0
27/03:00am 19.3 14.4 2.2 32 7.9 SSE 17 20 9 11 1018.4 1017.6 0.0
27/02:30am 19.4 15.3 2.3 32 7.9 S 13 17 7 9 1018.8 1018.0 0.0
27/02:00am 19.9 15.7 1.8 30 8.3 S 13 17 7 9 1018.7 1017.9 0.0
27/01:30am 20.7 16.2 2.0 29 8.7 SSE 15 20 8 11 1018.7 1017.9 0.0
27/01:00am 21.3 16.4 2.1 28 9.0 SSE 17 22 9 12 1018.9 1018.1 0.0
27/12:30am 22.1 17.2 2.2 27 9.4 SSE 17 22 9 12 1018.9 1018.1 0.0
27/12:00am 22.7 17.5 2.2 26 9.7 SSE 19 24 10 13 1019.0 1018.2 0.0
 
Date/Time
EDT
Temp
°C
App
Temp
°C
Dew
Point
Rel
Hum
%
Delta-T
°C
Wind Press
QNH
hPa
Press
MSL
hPa
Rain
since 9 am
mm
Dir
 
Spd
km/h
Gust
km/h
Spd
kts
Gust
kts
26/11:30pm 23.2 18.4 2.7 26 9.9 SSE 17 24 9 13 1019.1 1018.3 0.0
26/11:00pm 23.9 18.5 2.7 25 10.2 SSE 20 26 11 14 1018.8 1018.0 0.0
26/10:30pm 24.4 18.5 1.9 23 10.8 SSE 22 28 12 15 1018.6 1017.8 0.0
26/10:00pm 24.8 19.2 1.0 21 11.2 SSE 20 26 11 14 1018.3 1017.5 0.0
26/09:30pm 25.5 20.0 1.6 21 11.5 SSE 20 28 11 15 1018.1 1017.3 0.0
26/09:00pm 26.1 20.2 1.4 20 11.8 SSE 22 26 12 14 1017.8 1017.0 0.0
26/08:30pm 26.8 20.3 0.5 18 12.5 SE 24 32 13 17 1017.9 1017.1 0.0
26/08:00pm 27.6 21.0 -0.5 16 13.2 SE 24 33 13 18 1017.4 1016.6 0.0
26/07:30pm 28.5 21.5 -0.6 15 13.7 SSE 26 33 14 18 1017.1 1016.2 0.0
26/07:00pm 29.1 22.4 -1.1 14 14.2 SSE 24 33 13 18 1016.9 1016.0 0.0
26/06:30pm 29.3 22.2 -0.9 14 14.2 SE 26 39 14 21 1016.7 1015.8 0.0
26/06:00pm 29.3 22.5 -1.9 13 14.4 SE 24 32 13 17 1016.7 1015.8 0.0
26/05:30pm 29.8 22.3 -1.5 13 14.7 SSE 28 43 15 23 1016.6 1015.7 0.0
26/05:00pm 30.0 24.0 -1.4 13 14.7 SSE 20 32 11 17 1016.7 1015.8 0.0
26/04:30pm 30.7 23.9 -1.9 12 15.3 S 24 35 13 19 1016.9 1016.0 0.0
26/04:00pm 29.5 23.1 -1.8 13 14.5 SE 22 39 12 21 1017.2 1016.4 0.0
26/03:30pm 29.7 22.8 -2.7 12 14.9 SSE 24 35 13 19 1017.4 1016.6 0.0
26/03:00pm 29.7 22.6 -1.6 13 14.6 S 26 37 14 20 1017.9 1017.1 0.0
26/02:30pm 29.2 22.4 -2.0 13 14.4 S 24 33 13 18 1018.2 1017.4 0.0
26/02:00pm 28.8 23.4 -1.3 14 14.0 E 17 24 9 13 1018.7 1017.9 0.0
26/01:30pm 28.1 21.4 -0.9 15 13.6 S 24 32 13 17 1019.0 1018.2 0.0
26/01:00pm 27.1 21.6 0.8 18 12.5 SE 19 35 10 19 1019.4 1018.6 0.0
26/12:30pm 26.7 20.2 0.4 18 12.5 ESE 24 30 13 16 1019.8 1019.0 0.0
26/12:00pm 25.9 19.4 0.5 19 11.9 SE 24 28 13 15 1020.1 1019.3 0.0
26/11:30am 25.4 20.0 1.5 21 11.4 ESE 19 26 10 14 1020.3 1019.5 0.0
26/11:00am 24.5 18.9 1.4 22 10.9 E 20 28 11 15 1020.5 1019.7 0.0
26/10:30am 23.9 18.1 2.1 24 10.4 SE 22 33 12 18 1020.5 1019.7 0.0
26/10:00am 22.8 17.0 2.3 26 9.7 SE 22 32 12 17 1020.7 1019.9 0.0
26/09:30am 22.0 16.6 2.7 28 9.2 SSE 20 28 11 15 1020.5 1019.7 0.0
26/09:00am 21.0 15.7 3.2 31 8.5 SSE 20 28 11 15 1020.3 1019.5 0.0
26/08:30am 19.1 13.1 3.3 35 7.5 S 24 28 13 15 1020.1 1019.3 0.0
26/08:00am 17.9 12.5 2.6 36 7.0 SSE 20 28 11 15 1019.8 1019.0 0.0
26/07:30am 17.0 11.6 1.4 35 7.0 SSE 19 24 10 13 1019.5 1018.7 0.0
26/07:00am 14.4 12.0 2.0 43 5.5 WSW 4 6 2 3 1019.0 1018.2 0.0
26/06:30am 13.1 9.7 2.1 47 4.8 SSW 9 11 5 6 1018.8 1018.0 0.0
26/06:00am 13.3 10.4 1.6 45 5.1 SSW 6 7 3 4 1018.7 1017.9 0.0
26/05:30am 13.9 12.3 2.5 46 5.1 CALM 0 0 0 0 1018.7 1017.9 0.0
26/05:00am 14.5 11.7 1.8 42 5.6 SW 6 7 3 4 1018.6 1017.8 0.0
26/04:30am 14.7 11.3 1.6 41 5.8 SSW 9 11 5 6 1018.4 1017.6 0.0
26/04:00am 15.1 12.2 1.6 40 5.9 W 6 7 3 4 1018.5 1017.7 0.0
26/03:30am 15.4 11.5 1.2 38 6.2 S 11 15 6 8 1018.3 1017.5 0.0
26/03:00am 15.3 11.8 1.1 38 6.2 S 9 11 5 6 1018.6 1017.8 0.0
26/02:30am 15.7 12.1 0.7 36 6.5 S 9 9 5 5 1018.8 1018.0 0.0
26/02:00am 16.3 13.0 0.4 34 6.9 S 7 9 4 5 1019.1 1018.3 0.0
26/01:30am 18.9 14.2 1.0 30 8.1 SSE 15 17 8 9 1019.4 1018.6 0.0
26/01:00am 19.3 14.5 0.4 28 8.4 SE 15 19 8 10 1019.5 1018.7 0.0
26/12:30am 19.9 14.7 -0.1 26 8.9 SSE 17 20 9 11 1019.5 1018.7 0.0
26/12:00am 20.5 15.3 -0.2 25 9.2 SSE 17 22 9 12 1019.5 1018.7 0.0
 
Date/Time
EDT
Temp
°C
App
Temp
°C
Dew
Point
Rel
Hum
%
Delta-T
°C
Wind Press
QNH
hPa
Press
MSL
hPa
Rain
since 9 am
mm
Dir
 
Spd
km/h
Gust
km/h
Spd
kts
Gust
kts
25/11:30pm 20.8 15.1 -0.5 24 9.5 SSE 19 24 10 13 1019.4 1018.6 0.0
25/11:00pm 21.2 15.5 -0.7 23 9.7 SSE 19 24 10 13 1019.6 1018.8 0.0
25/10:30pm 21.7 16.0 -0.9 22 10.0 SSE 19 26 10 14 1019.5 1018.7 0.0
25/10:00pm 22.3 16.6 -1.1 21 10.4 SSE 19 26 10 14 1019.1 1018.3 0.0
25/09:30pm 22.9 17.6 -0.6 21 10.6 S 17 24 9 13 1018.7 1017.9 0.0
25/09:00pm 24.0 18.6 -1.0 19 11.3 SSE 17 20 9 11 1018.5 1017.7 0.0
25/08:30pm 24.7 18.8 -2.0 17 11.9 SSE 19 22 10 12 1018.2 1017.4 0.0
25/08:00pm 25.7 19.8 -2.0 16 12.4 SE 19 24 10 13 1018.1 1017.3 0.0
25/07:30pm 26.2 20.3 -2.4 15 12.8 ESE 19 26 10 14 1017.8 1017.0 0.0
25/07:00pm 26.4 21.5 -3.2 14 13.1 ESE 13 20 7 11 1017.6 1016.8 0.0
25/06:30pm 27.2 22.0 -2.6 14 13.4 SE 15 24 8 13 1017.4 1016.6 0.0
25/06:00pm 26.8 21.6 -2.9 14 13.2 ESE 15 22 8 12 1017.4 1016.6 0.0
25/05:30pm 26.5 21.4 -2.2 15 12.9 ESE 15 26 8 14 1017.6 1016.8 0.0
25/05:00pm 27.0 20.9 -2.7 14 13.3 SSE 20 30 11 16 1017.8 1017.0 0.0
25/04:30pm 27.3 21.5 -1.6 15 13.3 SE 19 33 10 18 1018.1 1017.3 0.0
25/04:00pm 25.9 19.9 -2.7 15 12.7 SE 19 30 10 16 1018.3 1017.5 0.0
25/03:30pm 25.9 20.8 -1.8 16 12.5 ESE 15 26 8 14 1018.4 1017.6 0.0
25/03:00pm 25.8 19.9 -1.1 17 12.3 SE 20 28 11 15 1018.7 1017.9 0.0
25/02:30pm 25.0 19.2 -1.7 17 12.0 SSE 19 33 10 18 1019.0 1018.2 0.0
25/02:00pm 24.8 18.9 -1.1 18 11.7 SSE 20 32 11 17 1019.3 1018.5 0.0
25/01:30pm 22.9 18.3 -1.2 20 10.8 ESE 13 26 7 14 1019.8 1019.0 0.0
25/01:00pm 22.9 16.7 -0.6 21 10.6 SE 22 30 12 16 1020.0 1019.2 0.0
25/12:30pm 22.5 16.1 0.9 24 10.0 SE 24 37 13 20 1020.3 1019.5 0.0
25/12:00pm 22.3 16.0 1.3 25 9.8 SSE 24 37 13 20 1020.4 1019.6 0.0
25/11:30am 20.4 13.7 1.3 28 8.8 SE 26 39 14 21 1020.5 1019.7 0.0
25/11:00am 19.5 12.0 1.5 30 8.2 ESE 30 41 16 22 1020.9 1020.0 0.0
25/10:30am 18.2 11.2 2.1 34 7.4 SE 28 39 15 21 1021.1 1020.2 0.0
25/10:00am 17.4 9.9 3.3 39 6.6 SE 32 41 17 22 1021.2 1020.3 0.0
25/09:30am 16.9 9.3 2.9 39 6.5 SE 32 41 17 22 1021.0 1020.1 0.0
25/09:00am 16.0 9.0 4.1 45 5.6 SE 30 41 16 22 1020.5 1019.7 1.2
25/08:30am 15.7 9.1 4.1 46 5.4 SE 28 37 15 20 1020.2 1019.4 1.2
25/08:00am 14.3 6.8 4.3 51 4.6 SSE 33 46 18 25 1019.9 1019.1 1.2
25/07:44am 14.1 6.7 4.1 51 4.6 SE 32 50 17 27 1019.7 1018.9 1.2
25/07:30am 14.0 7.7 4.0 51 4.6 SE 26 39 14 21 1019.3 1018.5 1.2
25/07:00am 13.8 7.5 3.6 50 4.6 SSE 26 33 14 18 1018.7 1017.9 1.2
25/06:30am 14.0 6.1 2.3 45 5.2 SSE 33 43 18 23 1018.3 1017.5 1.2
25/06:00am 14.5 7.7 3.3 47 5.1 SSE 28 39 15 21 1017.9 1017.1 1.2
25/05:30am 15.0 8.9 4.7 50 4.9 SSE 26 35 14 19 1017.8 1017.0 1.2
25/05:00am 15.6 9.1 4.9 49 5.1 SSE 28 39 15 21 1017.7 1016.9 1.0
25/04:50am 15.8 9.0 5.1 49 5.1 SSE 30 48 16 26 1017.6 1016.8 1.0
25/04:30am 16.1 9.6 4.8 47 5.4 SSE 28 43 15 23 1017.5 1016.7 1.0
25/04:00am 16.7 9.6 5.3 47 5.5 SSE 32 46 17 25 1017.2 1016.4 1.0
25/03:57am 16.8 10.4 5.4 47 5.5 SSE 28 46 15 25 1017.2 1016.4 1.0
25/03:30am 17.2 12.8 7.3 52 5.0 SSE 20 33 11 18 1017.0 1016.1 1.0
25/03:00am 17.9 12.9 7.9 52 5.1 S 24 32 13 17 1016.8 1015.9 1.0
25/02:30am 18.4 14.0 8.9 54 5.0 SSE 22 37 12 20 1016.7 1015.8 1.0
25/02:00am 19.2 13.2 8.5 50 5.6 SSE 30 44 16 24 1016.6 1015.7 1.0
25/01:30am 20.0 14.5 10.7 55 5.1 SSE 30 44 16 24 1016.3 1015.4 1.0
25/01:00am 21.0 15.9 11.9 56 5.1 SSE 30 39 16 21 1016.3 1015.4 1.0
25/12:30am 21.8 15.2 11.5 52 5.8 SSE 37 52 20 28 1015.9 1015.0 1.0
25/12:00am 22.7 17.1 13.2 55 5.5 SSE 35 50 19 27 1015.6 1014.7 1.0
 
Date/Time
EDT
Temp
°C
App
Temp
°C
Dew
Point
Rel
Hum
%
Delta-T
°C
Wind Press
QNH
hPa
Press
MSL
hPa
Rain
since 9 am
mm
Dir
 
Spd
km/h
Gust
km/h
Spd
kts
Gust
kts
24/11:46pm 23.5 18.7 15.5 60 4.8 S 35 46 19 25 1015.2 1014.3 1.0
24/11:30pm 23.3 24.8 18.8 76 2.9 SSE 9 11 5 6 1014.9 1014.1 1.0
24/11:00pm 23.6 25.1 18.9 75 3.0 SSE 9 13 5 7 1014.7 1013.9 1.0
24/10:30pm 23.4 25.5 19.3 78 2.6 SE 7 9 4 5 1014.3 1013.5 1.0
24/10:00pm 24.2 25.6 18.6 71 3.6 SSE 9 13 5 7 1013.9 1013.1 1.0
24/09:30pm 24.7 26.3 19.1 71 3.6 S 9 13 5 7 1013.5 1012.7 1.0
24/09:00pm 24.1 26.3 19.6 76 2.9 SW 7 11 4 6 1012.5 1011.7 1.0
24/08:30pm 24.1 26.5 20.0 78 2.7 WNW 7 11 4 6 1011.6 1010.7 1.0
24/08:00pm 24.4 26.6 19.5 74 3.2 NNW 7 11 4 6 1011.3 1010.4 1.0
24/07:30pm 24.6 25.7 18.8 70 3.7 WNW 11 17 6 9 1011.5 1010.6 1.0
24/07:00pm 24.1 25.4 19.2 74 3.2 NNW 11 17 6 9 1011.1 1010.2 1.0
24/06:31pm 24.2 21.2 19.1 73 3.3 NNW 33 52 18 28 1010.7 1009.8 1.0
24/06:30pm 24.7 20.7 17.7 65 4.4 NNW 35 52 19 28 1010.4 1009.5 1.0
24/06:21pm 26.1 22.7 15.8 53 6.3 NNW 28 52 15 28 1010.6 1009.7 1.0
24/06:19pm 26.3 25.0 18.2 61 5.2 NNW 22 41 12 22 1010.3 1009.4 1.0
24/06:00pm 27.3 23.6 18.3 58 5.8 NW 35 43 19 23 1008.1 1007.3 1.0
24/05:55pm 29.4 23.3 18.5 52 7.1 W 48 57 26 31 1007.5 1006.7 0.4
24/05:30pm 35.1 31.0 13.8 27 13.1 W 28 46 15 25 1007.1 1006.2 0.2
24/05:00pm 34.5 29.8 14.4 30 12.5 WNW 32 44 17 24 1007.5 1006.7 0.2
24/04:30pm 34.5 30.0 14.9 31 12.2 W 32 43 17 23 1007.8 1007.0 0.2
24/04:00pm 34.4 31.0 15.8 33 11.8 NW 28 41 15 22 1008.3 1007.5 0.2
24/03:30pm 33.3 30.1 16.2 36 10.8 NW 28 39 15 21 1008.6 1007.8 0.2
24/03:00pm 32.6 29.4 16.4 37 10.3 NW 28 43 15 23 1009.0 1008.2 0.2
24/02:30pm 31.4 29.0 17.3 43 9.0 NNW 26 37 14 20 1009.5 1008.6 0.2
24/02:00pm 30.9 29.4 18.6 48 8.0 N 24 35 13 19 1009.9 1009.0 0.2
24/01:30pm 28.9 27.3 18.4 53 6.8 N 24 33 13 18 1010.5 1009.6 0.2
24/01:00pm 28.7 26.9 17.9 52 6.9 N 24 33 13 18 1010.8 1009.9 0.2
24/12:30pm 28.4 26.4 18.2 54 6.6 N 26 33 14 18 1011.3 1010.4 0.2
24/12:00pm 28.0 26.0 18.4 56 6.2 N 26 35 14 19 1011.3 1010.4 0.2
24/11:30am 26.9 27.7 19.8 65 4.6 NNE 15 20 8 11 1011.2 1010.3 0.0
24/11:00am 25.3 26.6 20.1 73 3.4 ENE 13 17 7 9 1011.1 1010.2 0.0
24/10:30am 24.5 25.6 19.6 74 3.2 E 13 17 7 9 1011.4 1010.5 0.0
24/10:00am 23.8 25.0 19.9 79 2.5 ENE 13 19 7 10 1011.6 1010.7 0.0
24/09:30am 23.4 23.8 19.8 80 2.3 ENE 17 22 9 12 1011.6 1010.7 0.0
24/09:00am 23.0 23.1 20.0 83 1.9 ENE 19 22 10 12 1011.4 1010.5 3.4
24/08:30am 22.8 24.3 19.8 83 1.9 E 11 17 6 9 1012.0 1011.1 3.4
24/08:00am 22.8 23.7 20.0 84 1.8 E 15 24 8 13 1011.8 1010.9 3.4
24/07:30am 22.6 23.4 19.0 80 2.3 ESE 13 20 7 11 1011.6 1010.7 3.4

Other Formats:

Comma delimited format used in spreadsheet applications
http://www.bom.gov.au/fwo/IDN60801/IDN60801.94686.axf

JavaScript Object Notation format (JSON) in row-major order
http://www.bom.gov.au/fwo/IDN60801/IDN60801.94686.json